Time;durP1;ratioP1;P1;durP2;ratioP2;P2;SDS_P1;SDS_P2;PMS_P1;PMS_P2;Temp;Humidity;BMP_temperature;BMP_pressure;BME280_temperature;BME280_humidity;BME280_pressure;Samples;Min_cycle;Max_cycle;Signal;HPM_P1;HPM_P2
2023/09/11 00:02:07;;;;;;;1.63;0.88;;;20.00;99.90;;;;;;5049569;28;20421;-70
2023/09/11 00:04:32;;;;;;;3.20;0.95;;;20.00;99.90;;;;;;5090230;28;20076;-70
2023/09/11 00:07:00;;;;;;;1.50;0.73;;;20.00;99.90;;;;;;5094406;28;20381;-70
2023/09/11 00:09:26;;;;;;;2.20;0.65;;;20.00;99.90;;;;;;5064470;28;20072;-70
2023/09/11 00:11:51;;;;;;;2.72;1.08;;;19.90;99.90;;;;;;5060542;28;20087;-70
2023/09/11 00:14:17;;;;;;;2.25;0.70;;;19.90;99.90;;;;;;5066242;28;20098;-69
2023/09/11 00:16:43;;;;;;;1.38;0.70;;;19.90;99.90;;;;;;5058450;28;20438;-70
2023/09/11 00:19:09;;;;;;;2.65;1.25;;;19.90;99.90;;;;;;5055622;28;20396;-70
2023/09/11 00:21:35;;;;;;;1.15;0.77;;;19.80;99.90;;;;;;5092263;28;20136;-70
2023/09/11 00:24:01;;;;;;;1.23;0.88;;;19.80;99.90;;;;;;5062771;28;20119;-70
2023/09/11 00:26:27;;;;;;;1.08;0.47;;;19.80;99.90;;;;;;5056080;28;20480;-70
2023/09/11 00:28:52;;;;;;;4.82;0.98;;;19.80;99.90;;;;;;5059044;28;20403;-70
2023/09/11 00:31:19;;;;;;;0.85;0.80;;;19.80;99.90;;;;;;5055716;28;20051;-69
2023/09/11 00:33:44;;;;;;;3.53;1.17;;;19.80;99.90;;;;;;5058281;28;20098;-70
2023/09/11 00:36:10;;;;;;;2.30;1.05;;;19.70;99.90;;;;;;5056310;28;20517;-69
2023/09/11 00:38:36;;;;;;;2.85;0.73;;;19.70;99.90;;;;;;5056049;28;20045;-70
2023/09/11 00:41:01;;;;;;;1.65;0.90;;;19.70;99.90;;;;;;5056834;28;20044;-70
2023/09/11 00:43:27;;;;;;;2.05;1.13;;;19.70;99.90;;;;;;5059511;28;20289;-69
2023/09/11 00:45:55;;;;;;;5.85;1.23;;;19.70;99.90;;;;;;5065636;28;20381;-70
2023/09/11 00:48:21;;;;;;;6.35;1.35;;;19.60;99.90;;;;;;5054930;28;20033;-69
2023/09/11 00:50:48;;;;;;;2.78;1.00;;;19.60;99.90;;;;;;5036067;28;20094;-69
2023/09/11 00:53:14;;;;;;;1.10;0.70;;;19.60;99.90;;;;;;5056990;28;20115;-69
2023/09/11 00:55:44;;;;;;;1.50;1.00;;;19.60;99.90;;;;;;5088601;28;20036;-70
2023/09/11 00:58:10;;;;;;;2.95;1.25;;;19.60;99.90;;;;;;5056341;28;20380;-70
2023/09/11 01:00:35;;;;;;;0.77;0.68;;;19.60;99.90;;;;;;5093621;28;20416;-70
2023/09/11 01:03:01;;;;;;;1.73;1.10;;;19.60;99.90;;;;;;5056025;28;20033;-70
2023/09/11 01:05:29;;;;;;;1.35;1.00;;;19.60;99.90;;;;;;5056030;28;20424;-70
2023/09/11 01:07:55;;;;;;;3.67;1.73;;;19.60;99.90;;;;;;5042255;28;20158;-70
2023/09/11 01:10:21;;;;;;;2.53;1.45;;;19.60;99.90;;;;;;5059580;28;20051;-70
2023/09/11 01:12:47;;;;;;;1.00;0.70;;;19.60;99.90;;;;;;5058229;28;20044;-70
2023/09/11 01:15:13;;;;;;;1.33;0.75;;;19.50;99.90;;;;;;5054413;28;20102;-70
2023/09/11 01:17:53;;;;;;;0.65;0.55;;;19.50;99.90;;;;;;5072577;28;20037;-70
2023/09/11 01:20:46;;;;;;;2.92;1.20;;;19.50;99.90;;;;;;5053462;28;20584;-70
2023/09/11 01:23:35;;;;;;;1.05;0.80;;;19.50;99.90;;;;;;5088268;28;20378;-69
2023/09/11 01:26:26;;;;;;;1.75;0.80;;;19.50;99.90;;;;;;5055667;28;20073;-69
2023/09/11 01:29:11;;;;;;;2.47;1.52;;;19.50;99.90;;;;;;5061508;28;20052;-70
2023/09/11 01:31:38;;;;;;;12.35;0.90;;;19.40;99.90;;;;;;5060808;28;20033;-70
2023/09/11 01:34:06;;;;;;;1.17;0.80;;;19.40;99.90;;;;;;5059004;28;20043;-70
2023/09/11 01:36:32;;;;;;;1.95;1.15;;;19.40;99.90;;;;;;5060369;28;20048;-70
2023/09/11 01:38:58;;;;;;;1.83;1.00;;;19.30;99.90;;;;;;5054754;28;20052;-69
2023/09/11 01:41:31;;;;;;;1.05;0.95;;;19.30;99.90;;;;;;5056494;28;20433;-69
2023/09/11 01:44:00;;;;;;;3.58;1.50;;;19.40;99.90;;;;;;5089046;28;20068;-69
2023/09/11 01:46:27;;;;;;;1.42;0.88;;;19.30;99.90;;;;;;5087744;28;20280;-69
2023/09/11 01:48:54;;;;;;;1.58;0.82;;;19.30;99.90;;;;;;5042060;28;20075;-69
2023/09/11 01:51:21;;;;;;;1.88;0.85;;;19.30;99.90;;;;;;5067658;28;20048;-70
2023/09/11 01:53:47;;;;;;;2.45;1.30;;;19.30;99.90;;;;;;5057173;28;20049;-70
2023/09/11 01:56:14;;;;;;;3.10;1.17;;;19.20;99.90;;;;;;5073402;28;20114;-70
2023/09/11 01:58:39;;;;;;;1.15;0.65;;;19.20;99.90;;;;;;5092499;28;20072;-69
2023/09/11 02:01:05;;;;;;;1.73;1.10;;;19.20;99.90;;;;;;5059329;28;20512;-70
2023/09/11 02:03:31;;;;;;;1.02;0.82;;;19.20;99.90;;;;;;5055353;28;20124;-70
2023/09/11 02:05:56;;;;;;;1.40;0.85;;;19.10;99.90;;;;;;5056085;28;20632;-70
2023/09/11 02:08:22;;;;;;;1.15;0.85;;;19.10;99.90;;;;;;5058016;28;20041;-70
2023/09/11 02:10:48;;;;;;;1.70;0.98;;;19.10;99.90;;;;;;5055396;28;20060;-70
2023/09/11 02:13:14;;;;;;;1.10;0.70;;;19.10;99.90;;;;;;5044854;28;20547;-70
2023/09/11 02:15:40;;;;;;;0.93;0.70;;;19.10;99.90;;;;;;5054292;28;20047;-70
2023/09/11 02:18:06;;;;;;;4.22;1.08;;;19.10;99.90;;;;;;5055753;28;20036;-70
2023/09/11 02:20:31;;;;;;;1.85;0.90;;;19.00;99.90;;;;;;5057234;28;20531;-70
2023/09/11 02:22:57;;;;;;;1.60;0.88;;;19.00;99.90;;;;;;5058026;28;20039;-70
2023/09/11 02:25:23;;;;;;;1.15;0.73;;;19.00;99.90;;;;;;5056927;28;20373;-70
2023/09/11 02:27:48;;;;;;;0.90;0.70;;;19.00;99.90;;;;;;5053327;28;20033;-70
2023/09/11 02:30:14;;;;;;;1.55;0.70;;;19.00;99.90;;;;;;5057159;28;20503;-70
2023/09/11 02:32:40;;;;;;;1.77;1.05;;;18.90;99.90;;;;;;5062478;28;20040;-70
2023/09/11 02:35:06;;;;;;;1.77;0.88;;;18.90;99.90;;;;;;5036468;28;20099;-71
2023/09/11 02:37:31;;;;;;;0.88;0.60;;;18.90;99.90;;;;;;5036808;28;20052;-70
2023/09/11 02:39:57;;;;;;;1.98;0.70;;;18.90;99.90;;;;;;5058984;28;20049;-70
2023/09/11 02:42:23;;;;;;;1.25;0.65;;;18.80;99.90;;;;;;5062216;28;20048;-70
2023/09/11 02:44:50;;;;;;;3.60;0.90;;;18.80;99.90;;;;;;5036568;28;20102;-70
2023/09/11 02:47:15;;;;;;;3.80;1.08;;;18.80;99.90;;;;;;5058531;28;20036;-70
2023/09/11 02:49:41;;;;;;;1.23;0.85;;;18.70;99.90;;;;;;5039164;28;20132;-70
2023/09/11 02:52:07;;;;;;;1.10;0.77;;;18.70;99.90;;;;;;5053496;28;20028;-70
2023/09/11 02:54:32;;;;;;;0.73;0.50;;;18.70;99.90;;;;;;5057164;28;20087;-70
2023/09/11 02:56:58;;;;;;;1.20;0.75;;;18.70;99.90;;;;;;5093599;28;20083;-70
2023/09/11 02:59:24;;;;;;;1.73;0.88;;;18.70;99.90;;;;;;5059453;28;20099;-71
2023/09/11 03:01:49;;;;;;;1.42;0.80;;;18.70;99.90;;;;;;5056098;28;20079;-70
2023/09/11 03:04:15;;;;;;;0.75;0.60;;;18.70;99.90;;;;;;5055908;28;20041;-71
2023/09/11 03:06:41;;;;;;;1.58;0.90;;;18.70;99.90;;;;;;5053372;28;20147;-70
2023/09/11 03:09:06;;;;;;;1.75;0.80;;;18.70;99.90;;;;;;5058733;28;20101;-70
2023/09/11 03:11:33;;;;;;;1.05;0.55;;;18.70;99.90;;;;;;5054204;28;20080;-70
2023/09/11 03:13:59;;;;;;;1.67;0.90;;;18.70;99.90;;;;;;5088503;28;20312;-70
2023/09/11 03:16:24;;;;;;;1.25;0.80;;;18.60;99.90;;;;;;5058116;28;20072;-71
2023/09/11 03:18:50;;;;;;;1.83;1.00;;;18.60;99.90;;;;;;5089506;28;20491;-70
2023/09/11 03:21:16;;;;;;;3.60;1.23;;;18.70;99.90;;;;;;5054982;28;20033;-70
2023/09/11 03:23:42;;;;;;;1.48;0.65;;;18.70;99.90;;;;;;5053023;28;20144;-70
2023/09/11 03:26:17;;;;;;;2.78;0.63;;;18.70;99.90;;;;;;5039222;28;20037;-70
2023/09/11 03:28:51;;;;;;;2.33;0.60;;;18.60;99.90;;;;;;5063120;28;20086;-70
2023/09/11 03:31:17;;;;;;;3.03;1.05;;;18.60;99.90;;;;;;5055970;28;20563;-70
2023/09/11 03:33:43;;;;;;;1.85;0.95;;;18.60;99.90;;;;;;5054944;28;20449;-70
2023/09/11 03:36:12;;;;;;;1.30;0.60;;;18.60;99.90;;;;;;5054679;28;20128;-70
2023/09/11 03:38:38;;;;;;;1.45;0.73;;;18.60;99.90;;;;;;5063224;28;20489;-70
2023/09/11 03:41:03;;;;;;;1.40;0.88;;;18.60;99.90;;;;;;5061235;28;20032;-70
2023/09/11 03:43:29;;;;;;;1.33;0.82;;;18.60;99.90;;;;;;5077959;28;20098;-70
2023/09/11 03:45:55;;;;;;;1.30;0.60;;;18.60;99.90;;;;;;5062757;28;20390;-70
2023/09/11 03:48:21;;;;;;;1.63;0.90;;;18.50;99.90;;;;;;5062537;28;20037;-70
2023/09/11 03:50:46;;;;;;;1.85;0.95;;;18.50;99.90;;;;;;5061123;28;20029;-70
2023/09/11 03:53:12;;;;;;;0.93;0.77;;;18.50;99.90;;;;;;5058739;28;20053;-71
2023/09/11 03:55:38;;;;;;;3.55;1.13;;;18.50;99.90;;;;;;5056771;28;20160;-70
2023/09/11 03:58:03;;;;;;;1.70;1.02;;;18.50;99.90;;;;;;5058983;28;20032;-70
2023/09/11 04:00:29;;;;;;;1.52;0.88;;;18.50;99.90;;;;;;5065613;28;20055;-70
2023/09/11 04:02:55;;;;;;;0.90;0.45;;;18.50;99.90;;;;;;5055199;28;20043;-70
2023/09/11 04:05:20;;;;;;;2.08;0.80;;;18.50;99.90;;;;;;5045048;28;20166;-70
2023/09/11 04:07:46;;;;;;;1.90;0.60;;;18.50;99.90;;;;;;5067541;28;20041;-70
2023/09/11 04:10:12;;;;;;;1.42;0.85;;;18.50;99.90;;;;;;5057796;28;20041;-71
2023/09/11 04:12:38;;;;;;;2.10;0.88;;;18.50;99.90;;;;;;5075321;28;20040;-70
2023/09/11 04:15:04;;;;;;;2.67;0.80;;;18.50;99.90;;;;;;5056923;28;20037;-70
2023/09/11 04:17:29;;;;;;;1.33;0.80;;;18.50;99.90;;;;;;5059359;28;20051;-70
2023/09/11 04:19:55;;;;;;;1.45;0.85;;;18.50;99.90;;;;;;5058128;28;20119;-70
2023/09/11 04:22:21;;;;;;;1.73;0.65;;;18.50;99.90;;;;;;5053510;28;20041;-70
2023/09/11 04:24:47;;;;;;;1.52;0.90;;;18.50;99.90;;;;;;5089745;28;20067;-70
2023/09/11 04:27:12;;;;;;;2.55;0.80;;;18.50;99.90;;;;;;5057127;28;20025;-70
2023/09/11 04:29:39;;;;;;;1.50;0.60;;;18.50;99.90;;;;;;5062337;28;20469;-71
2023/09/11 04:32:05;;;;;;;1.52;0.95;;;18.50;99.90;;;;;;5055689;28;20037;-70
2023/09/11 04:34:31;;;;;;;1.30;0.63;;;18.50;99.90;;;;;;5061853;28;20249;-70
2023/09/11 04:36:56;;;;;;;2.38;0.65;;;18.50;99.90;;;;;;5059295;28;20037;-70
2023/09/11 04:39:23;;;;;;;1.42;0.73;;;18.50;99.90;;;;;;5040000;28;20041;-70
2023/09/11 04:41:49;;;;;;;1.20;0.98;;;18.50;99.90;;;;;;5094004;28;20049;-70
2023/09/11 04:44:14;;;;;;;1.85;0.98;;;18.40;99.90;;;;;;5056691;28;20443;-70
2023/09/11 04:46:40;;;;;;;0.90;0.70;;;18.40;99.90;;;;;;5059441;28;20106;-70
2023/09/11 04:49:06;;;;;;;1.33;0.80;;;18.40;99.90;;;;;;5059213;28;20086;-70
2023/09/11 04:51:32;;;;;;;0.95;0.80;;;18.40;99.90;;;;;;5091000;28;20065;-70
2023/09/11 04:53:57;;;;;;;2.05;1.08;;;18.40;99.90;;;;;;5057068;28;20045;-71
2023/09/11 04:56:23;;;;;;;1.40;0.80;;;18.40;99.90;;;;;;5058418;28;20522;-71
2023/09/11 04:58:49;;;;;;;0.93;0.60;;;18.40;99.90;;;;;;5042304;28;20047;-70
2023/09/11 05:01:14;;;;;;;1.70;0.73;;;18.40;99.90;;;;;;5057678;28;20055;-70
2023/09/11 05:03:40;;;;;;;2.42;1.00;;;18.40;99.90;;;;;;5058771;28;20041;-69
2023/09/11 05:06:06;;;;;;;2.83;1.00;;;18.40;99.90;;;;;;5061575;28;20041;-69
2023/09/11 05:08:32;;;;;;;1.27;0.63;;;18.40;99.90;;;;;;5054814;28;20036;-70
2023/09/11 05:11:01;;;;;;;1.25;0.70;;;18.40;99.90;;;;;;5060395;28;20369;-70
2023/09/11 05:13:26;;;;;;;4.13;1.55;;;18.50;99.90;;;;;;5062244;28;20045;-70
2023/09/11 05:15:52;;;;;;;2.47;1.08;;;18.50;99.90;;;;;;5059224;28;20047;-69
2023/09/11 05:18:18;;;;;;;4.00;1.27;;;18.50;99.90;;;;;;5058737;28;20036;-70
2023/09/11 05:20:44;;;;;;;0.90;0.65;;;18.50;99.90;;;;;;5052014;28;20048;-69
2023/09/11 05:23:10;;;;;;;2.92;1.05;;;18.60;99.90;;;;;;5058860;28;20045;-69
2023/09/11 05:25:36;;;;;;;2.60;0.90;;;18.60;99.90;;;;;;5054037;28;20522;-69
2023/09/11 05:28:02;;;;;;;2.83;1.05;;;18.60;99.90;;;;;;5046554;28;20174;-69
2023/09/11 05:30:28;;;;;;;2.03;0.88;;;18.70;99.90;;;;;;5054210;28;20044;-70
2023/09/11 05:32:54;;;;;;;5.28;0.98;;;18.70;99.90;;;;;;5059414;28;20047;-69
2023/09/11 05:35:21;;;;;;;1.42;0.98;;;18.70;99.90;;;;;;5060981;28;20572;-69
2023/09/11 05:37:46;;;;;;;1.27;0.73;;;18.80;99.90;;;;;;5059604;28;20049;-69
2023/09/11 05:40:12;;;;;;;1.38;0.77;;;18.80;99.90;;;;;;5057787;28;20048;-70
2023/09/11 05:42:38;;;;;;;1.60;1.02;;;18.80;99.90;;;;;;5072493;28;20120;-69
2023/09/11 05:45:05;;;;;;;4.40;1.30;;;18.90;99.90;;;;;;5057091;28;20049;-69
2023/09/11 05:47:31;;;;;;;1.13;0.47;;;18.90;99.90;;;;;;5039407;28;20047;-70
2023/09/11 05:50:00;;;;;;;1.00;0.70;;;18.90;99.90;;;;;;5060593;28;20041;-69
2023/09/11 05:52:29;;;;;;;1.50;0.68;;;19.00;99.90;;;;;;5058023;28;20044;-69
2023/09/11 05:54:55;;;;;;;3.75;1.48;;;19.10;99.90;;;;;;5088421;28;20033;-71
2023/09/11 05:57:21;;;;;;;1.10;0.70;;;19.20;99.90;;;;;;5056586;28;20048;-70
2023/09/11 05:59:47;;;;;;;2.25;1.05;;;19.20;99.90;;;;;;5056373;28;20045;-70
2023/09/11 06:02:12;;;;;;;2.25;1.00;;;19.30;99.90;;;;;;5053104;28;20041;-70
2023/09/11 06:04:38;;;;;;;2.70;0.95;;;19.40;99.90;;;;;;5055961;28;20043;-70
2023/09/11 06:07:04;;;;;;;2.17;1.15;;;19.50;99.90;;;;;;5053922;28;20068;-70
2023/09/11 06:09:30;;;;;;;1.08;0.70;;;19.60;99.90;;;;;;5061797;28;20048;-70
2023/09/11 06:11:56;;;;;;;1.38;0.75;;;19.80;99.90;;;;;;5055073;28;20143;-70
2023/09/11 06:14:23;;;;;;;3.33;1.17;;;19.80;99.90;;;;;;5058429;28;20092;-70
2023/09/11 06:16:48;;;;;;;4.38;1.13;;;19.90;99.90;;;;;;5055837;28;20041;-70
2023/09/11 06:19:14;;;;;;;1.23;0.70;;;20.00;99.90;;;;;;5054227;28;20040;-69
2023/09/11 06:21:43;;;;;;;1.10;0.85;;;20.10;99.90;;;;;;5053139;28;20041;-70
2023/09/11 06:24:10;;;;;;;2.28;1.48;;;20.20;99.90;;;;;;5088454;28;20056;-70
2023/09/11 06:26:36;;;;;;;1.35;0.95;;;20.30;99.90;;;;;;5059771;28;20445;-70
2023/09/11 06:29:02;;;;;;;1.08;0.80;;;20.40;99.90;;;;;;5055624;28;20033;-70
2023/09/11 06:31:28;;;;;;;2.25;1.00;;;20.50;99.90;;;;;;5051745;28;20041;-70
2023/09/11 06:33:54;;;;;;;2.65;1.15;;;20.60;99.90;;;;;;5091136;28;20523;-70
2023/09/11 06:36:19;;;;;;;2.55;0.80;;;20.70;99.90;;;;;;5062062;28;20072;-70
2023/09/11 06:38:48;;;;;;;3.40;1.05;;;20.80;99.90;;;;;;5042537;28;20036;-70
2023/09/11 06:41:14;;;;;;;1.25;0.73;;;20.90;99.90;;;;;;5088758;28;20101;-70
2023/09/11 06:43:39;;;;;;;1.65;0.90;;;21.00;99.90;;;;;;5057498;28;20447;-70
2023/09/11 06:46:05;;;;;;;2.50;1.25;;;21.10;99.90;;;;;;5054620;28;20064;-70
2023/09/11 06:48:31;;;;;;;1.60;0.90;;;21.20;99.90;;;;;;5059237;28;20485;-70
2023/09/11 06:50:56;;;;;;;1.95;1.13;;;21.30;99.90;;;;;;5055473;28;20175;-70
2023/09/11 06:53:22;;;;;;;1.33;0.80;;;21.40;99.90;;;;;;5056525;28;20044;-70
2023/09/11 06:55:48;;;;;;;3.40;1.20;;;21.50;99.90;;;;;;5053183;28;20098;-70
2023/09/11 06:58:14;;;;;;;1.77;1.00;;;21.60;99.90;;;;;;5057201;28;20505;-70
2023/09/11 07:00:40;;;;;;;1.77;0.95;;;21.80;99.90;;;;;;5059164;28;20049;-70
2023/09/11 07:03:06;;;;;;;3.10;1.00;;;21.90;99.90;;;;;;5060385;28;20049;-70
2023/09/11 07:05:32;;;;;;;1.73;1.00;;;22.10;99.90;;;;;;5058105;28;20075;-70
2023/09/11 07:07:58;;;;;;;3.92;1.23;;;22.20;99.90;;;;;;5057798;28;20495;-71
2023/09/11 07:10:24;;;;;;;2.22;1.10;;;22.30;99.90;;;;;;5045200;28;20040;-70
2023/09/11 07:12:50;;;;;;;3.60;1.45;;;22.40;99.90;;;;;;5064015;28;20423;-70
2023/09/11 07:15:19;;;;;;;1.77;1.17;;;22.50;99.90;;;;;;5050184;28;20040;-70
2023/09/11 07:17:47;;;;;;;2.08;0.75;;;22.60;99.90;;;;;;5059491;28;20040;-70
2023/09/11 07:20:13;;;;;;;3.40;1.50;;;22.80;99.90;;;;;;5040557;28;20040;-70
2023/09/11 07:22:39;;;;;;;3.97;1.30;;;22.90;99.90;;;;;;5055951;28;20047;-70
2023/09/11 07:25:11;;;;;;;2.15;1.15;;;23.00;99.90;;;;;;5056720;28;20044;-70
2023/09/11 07:27:37;;;;;;;2.28;1.48;;;23.20;99.90;;;;;;5055756;28;20548;-70
2023/09/11 07:30:03;;;;;;;2.00;1.15;;;23.40;99.90;;;;;;5059012;28;20041;-70
2023/09/11 07:32:30;;;;;;;1.58;0.98;;;23.50;99.90;;;;;;5058940;28;20040;-70
2023/09/11 07:34:56;;;;;;;3.97;1.25;;;23.70;99.90;;;;;;5089309;28;20222;-71
2023/09/11 07:37:22;;;;;;;4.13;1.17;;;23.80;99.90;;;;;;5061624;28;20124;-71
2023/09/11 07:39:50;;;;;;;2.67;1.23;;;24.00;99.90;;;;;;5059621;28;20040;-70
2023/09/11 07:42:16;;;;;;;1.92;0.90;;;24.30;99.90;;;;;;5061416;28;20056;-71
2023/09/11 07:44:45;;;;;;;1.77;1.33;;;24.40;99.90;;;;;;5057807;28;20045;-71
2023/09/11 07:47:12;;;;;;;3.33;1.33;;;24.50;99.90;;;;;;5043047;28;20036;-71
2023/09/11 07:49:38;;;;;;;1.80;1.27;;;24.70;99.90;;;;;;5057979;28;20153;-71
2023/09/11 07:52:04;;;;;;;1.67;1.15;;;24.90;99.90;;;;;;5059619;28;20131;-72
2023/09/11 07:54:30;;;;;;;1.98;1.20;;;25.00;99.90;;;;;;5061686;28;20460;-72
2023/09/11 07:56:55;;;;;;;2.22;1.27;;;25.00;99.90;;;;;;5059421;28;20389;-70
2023/09/11 07:59:21;;;;;;;1.55;1.17;;;25.10;99.90;;;;;;5059040;28;20036;-71
2023/09/11 08:01:47;;;;;;;1.48;1.02;;;25.20;99.90;;;;;;5055770;28;20037;-71
2023/09/11 08:04:13;;;;;;;1.42;0.82;;;25.30;99.90;;;;;;5060353;28;20054;-70
2023/09/11 08:06:38;;;;;;;1.88;1.02;;;25.50;99.90;;;;;;5062526;28;20479;-70
2023/09/11 08:09:04;;;;;;;1.52;0.90;;;25.80;99.90;;;;;;5055070;28;20071;-70
2023/09/11 08:11:34;;;;;;;1.42;0.88;;;26.20;99.90;;;;;;5090902;27;20044;-71
2023/09/11 08:14:00;;;;;;;1.70;0.93;;;26.80;99.90;;;;;;5063421;28;20054;-71
2023/09/11 08:16:26;;;;;;;1.40;0.65;;;27.40;99.90;;;;;;5059470;28;20053;-71
2023/09/11 08:18:52;;;;;;;1.50;0.80;;;28.10;99.90;;;;;;5054764;28;20128;-70
2023/09/11 08:21:19;;;;;;;1.35;0.93;;;28.80;99.90;;;;;;5062448;28;20088;-71
2023/09/11 08:23:45;;;;;;;1.23;0.70;;;29.40;99.90;;;;;;5059202;28;20098;-71
2023/09/11 08:26:11;;;;;;;2.53;0.70;;;30.00;99.90;;;;;;5058636;28;20041;-71
2023/09/11 08:28:37;;;;;;;2.33;0.60;;;30.40;99.90;;;;;;5061220;28;20528;-71
2023/09/11 08:31:03;;;;;;;2.22;1.33;;;30.90;99.90;;;;;;5055572;28;20049;-71
2023/09/11 08:33:29;;;;;;;1.02;0.55;;;31.30;99.90;;;;;;5062345;28;20055;-71
2023/09/11 08:35:55;;;;;;;1.67;0.77;;;31.50;99.90;;;;;;5057097;28;20036;-71
2023/09/11 08:38:21;;;;;;;1.33;0.50;;;31.80;99.90;;;;;;5063003;28;20029;-71
2023/09/11 08:40:46;;;;;;;2.92;1.25;;;31.90;99.90;;;;;;5062069;28;20545;-72
2023/09/11 08:43:12;;;;;;;1.40;0.50;;;32.10;99.90;;;;;;5058309;28;20048;-71
2023/09/11 08:45:39;;;;;;;2.47;0.60;;;32.10;99.90;;;;;;5061936;28;20060;-71
2023/09/11 08:48:13;;;;;;;1.20;0.50;;;32.20;99.90;;;;;;5089187;28;20053;-71
2023/09/11 08:50:53;;;;;;;1.98;0.47;;;32.30;99.90;;;;;;5063312;28;20460;-71
2023/09/11 08:53:21;;;;;;;1.95;0.70;;;32.60;99.90;;;;;;5089576;28;20036;-71
2023/09/11 08:55:47;;;;;;;1.85;0.65;;;32.90;99.90;;;;;;5063883;28;20163;-71
2023/09/11 08:58:15;;;;;;;2.05;0.55;;;33.00;99.90;;;;;;5055345;28;20590;-71
2023/09/11 09:00:41;;;;;;;1.05;0.60;;;33.10;99.90;;;;;;5060925;28;20101;-71
2023/09/11 09:03:08;;;;;;;1.60;0.77;;;33.20;99.90;;;;;;5059419;28;20040;-71
2023/09/11 09:05:35;;;;;;;3.55;0.82;;;33.30;99.90;;;;;;5060164;28;20041;-71
2023/09/11 09:08:04;;;;;;;0.60;0.45;;;33.50;99.90;;;;;;5061812;28;20094;-71
2023/09/11 09:10:30;;;;;;;0.70;0.40;;;33.80;99.90;;;;;;5058558;28;20037;-72
2023/09/11 09:12:56;;;;;;;2.45;0.50;;;34.00;99.90;;;;;;5054801;28;20040;-71
2023/09/11 09:15:23;;;;;;;1.50;0.40;;;34.20;99.90;;;;;;5089651;28;20488;-71
2023/09/11 09:17:50;;;;;;;1.50;0.60;;;34.20;99.70;;;;;;5059142;28;20054;-71
2023/09/11 09:20:17;;;;;;;1.25;0.52;;;34.40;99.90;;;;;;5053926;28;20127;-71
2023/09/11 09:22:57;;;;;;;0.40;0.30;;;34.40;98.80;;;;;;5054550;28;20059;-71
2023/09/11 09:25:27;;;;;;;0.80;0.50;;;34.50;97.30;;;;;;5057691;28;20037;-71
2023/09/11 09:27:54;;;;;;;1.58;0.60;;;34.80;98.30;;;;;;5060058;28;20065;-71
2023/09/11 09:30:22;;;;;;;2.72;0.77;;;35.00;96.90;;;;;;5061126;28;20527;-71
2023/09/11 09:32:50;;;;;;;4.78;1.27;;;34.90;93.40;;;;;;5057149;28;20166;-72
2023/09/11 09:35:21;;;;;;;0.57;0.30;;;34.90;93.00;;;;;;5084875;28;20052;-72
2023/09/11 09:37:51;;;;;;;1.08;0.50;;;35.00;91.10;;;;;;5062707;28;20044;-72
2023/09/11 09:40:50;;;;;;;2.15;0.50;;;35.10;87.20;;;;;;5059933;28;20524;-72
2023/09/11 09:43:18;;;;;;;1.17;0.35;;;35.20;83.40;;;;;;5045647;28;20131;-72
2023/09/11 09:45:45;;;;;;;0.47;0.30;;;35.20;93.70;;;;;;5057374;28;20577;-71
2023/09/11 09:48:18;;;;;;;1.25;0.50;;;35.20;90.10;;;;;;5063382;28;20060;-71
2023/09/11 09:50:49;;;;;;;1.98;0.55;;;35.30;91.60;;;;;;5086024;28;20522;-72
2023/09/11 09:53:28;;;;;;;1.60;0.82;;;35.30;90.60;;;;;;5056987;28;20087;-71
2023/09/11 09:55:56;;;;;;;1.17;0.55;;;35.30;82.90;;;;;;5054941;28;20080;-72
2023/09/11 09:58:30;;;;;;;0.40;0.22;;;35.30;90.10;;;;;;5058385;28;20107;-69
2023/09/11 10:01:01;;;;;;;0.85;0.40;;;35.30;90.40;;;;;;5054857;28;20083;-70
2023/09/11 10:03:28;;;;;;;1.85;0.45;;;35.30;86.40;;;;;;5092169;28;20039;-70
2023/09/11 10:05:54;;;;;;;1.70;0.45;;;35.30;90.50;;;;;;5064471;28;20056;-70
2023/09/11 10:08:20;;;;;;;2.78;0.57;;;35.30;84.50;;;;;;5058105;28;20033;-68
2023/09/11 10:10:45;;;;;;;0.57;0.30;;;35.30;88.50;;;;;;5056952;28;20548;-70
2023/09/11 10:13:13;;;;;;;0.70;0.40;;;35.20;81.70;;;;;;5060291;28;20040;-69
2023/09/11 10:15:40;;;;;;;1.25;0.50;;;35.20;83.40;;;;;;5044267;28;20501;-69
2023/09/11 10:18:09;;;;;;;0.63;0.40;;;35.10;85.80;;;;;;5052248;28;20052;-70
2023/09/11 10:20:35;;;;;;;2.15;0.40;;;35.10;86.60;;;;;;5039793;28;20172;-69
2023/09/11 10:23:03;;;;;;;0.98;0.30;;;35.00;83.10;;;;;;5059873;28;20053;-70
2023/09/11 10:25:33;;;;;;;0.80;0.50;;;35.00;87.00;;;;;;5051379;28;20500;-70
2023/09/11 10:28:28;;;;;;;1.25;0.50;;;35.10;84.10;;;;;;5063928;28;20124;-69
2023/09/11 10:31:00;;;;;;;2.60;0.90;;;35.20;76.60;;;;;;5086452;28;20053;-69
2023/09/11 10:33:27;;;;;;;1.17;0.50;;;35.20;78.20;;;;;;5059656;28;20044;-70
2023/09/11 10:35:58;;;;;;;1.40;0.70;;;35.20;80.40;;;;;;5059818;28;20128;-70
2023/09/11 10:38:30;;;;;;;0.90;0.45;;;35.20;81.40;;;;;;5092355;28;20090;-71
2023/09/11 10:40:57;;;;;;;1.00;0.50;;;35.20;83.50;;;;;;5054924;28;20083;-70
2023/09/11 10:43:24;;;;;;;0.80;0.50;;;35.20;79.10;;;;;;5056498;28;20041;-70
2023/09/11 10:45:51;;;;;;;1.83;0.82;;;35.10;78.10;;;;;;5087373;28;20045;-69
2023/09/11 10:48:32;;;;;;;2.45;0.52;;;35.00;77.90;;;;;;5053234;28;20036;-70
2023/09/11 10:50:59;;;;;;;1.42;0.68;;;35.00;78.50;;;;;;5087415;28;20067;-70
2023/09/11 10:53:27;;;;;;;2.00;0.70;;;34.90;82.10;;;;;;5056339;28;20051;-69
2023/09/11 10:55:55;;;;;;;1.00;0.55;;;34.90;83.00;;;;;;5059713;28;20072;-69
2023/09/11 10:58:22;;;;;;;1.83;0.60;;;34.80;74.70;;;;;;5088265;28;20040;-71
2023/09/11 11:00:55;;;;;;;1.58;0.50;;;34.40;73.90;;;;;;5060861;28;20033;-69
2023/09/11 11:03:21;;;;;;;;;;;34.30;76.50;;;;;;5055393;28;20029;-69
2023/09/11 11:05:47;;;;;;;1.13;0.50;;;34.30;77.70;;;;;;5044674;28;19923;-69
2023/09/11 11:08:14;;;;;;;1.52;0.50;;;34.50;82.30;;;;;;5059541;28;20132;-70
2023/09/11 11:10:41;;;;;;;1.17;0.50;;;34.70;81.40;;;;;;5058267;28;20052;-70
2023/09/11 11:13:09;;;;;;;1.40;0.75;;;34.80;80.50;;;;;;5053778;28;20404;-70
2023/09/11 11:15:35;;;;;;;1.50;0.40;;;34.90;76.30;;;;;;5055747;28;20055;-70
2023/09/11 11:18:23;;;;;;;2.22;0.90;;;34.80;74.10;;;;;;5050722;28;20039;-70
2023/09/11 11:21:09;;;;;;;1.00;0.52;;;34.80;75.00;;;;;;5086124;28;20497;-70
2023/09/11 11:23:58;;;;;;;0.77;0.50;;;34.60;73.70;;;;;;5065106;28;20041;-70
2023/09/11 11:26:25;;;;;;;1.23;0.52;;;34.70;71.30;;;;;;5074197;28;20033;-70
2023/09/11 11:28:51;;;;;;;1.10;0.57;;;34.80;76.40;;;;;;5052202;28;20042;-70
2023/09/11 11:31:21;;;;;;;1.08;0.40;;;35.00;73.30;;;;;;5053651;28;20110;-70
2023/09/11 11:33:49;;;;;;;0.70;0.30;;;35.00;71.00;;;;;;5053457;28;20047;-70
2023/09/11 11:36:17;;;;;;;0.95;0.40;;;34.90;70.80;;;;;;5056907;28;20377;-70
2023/09/11 11:38:43;;;;;;;0.60;0.40;;;34.80;71.90;;;;;;5058368;28;20119;-70
2023/09/11 11:41:10;;;;;;;0.98;0.73;;;34.90;72.40;;;;;;5055395;28;20044;-70
2023/09/11 11:43:36;;;;;;;1.10;0.57;;;35.10;73.10;;;;;;5053070;28;20048;-70
2023/09/11 11:46:06;;;;;;;2.55;0.65;;;35.30;73.50;;;;;;5057443;28;20052;-71
2023/09/11 11:48:33;;;;;;;1.15;0.52;;;35.30;69.30;;;;;;5053521;28;20053;-70
2023/09/11 11:50:59;;;;;;;1.13;0.50;;;35.30;68.40;;;;;;5055460;28;20040;-70
2023/09/11 11:53:25;;;;;;;2.05;0.40;;;35.40;71.60;;;;;;5054425;28;20516;-70
2023/09/11 11:55:55;;;;;;;0.80;0.40;;;35.70;70.60;;;;;;5055287;28;20033;-70
2023/09/11 11:58:21;;;;;;;1.00;0.50;;;35.60;67.60;;;;;;5062948;28;20511;-69
2023/09/11 12:00:59;;;;;;;0.60;0.50;;;35.50;62.60;;;;;;5059721;28;20037;-69
2023/09/11 12:03:31;;;;;;;1.10;0.40;;;35.30;66.40;;;;;;5061255;28;20132;-71
2023/09/11 12:05:59;;;;;;;2.35;0.65;;;35.20;59.30;;;;;;5060331;28;20039;-70
2023/09/11 12:08:25;;;;;;;0.73;0.30;;;35.20;60.60;;;;;;5061030;28;20044;-70
2023/09/11 12:10:51;;;;;;;1.73;0.55;;;35.20;63.20;;;;;;5093509;27;20038;-70
2023/09/11 12:13:19;;;;;;;0.93;0.30;;;35.30;65.70;;;;;;5048799;28;20056;-71
2023/09/11 12:16:05;;;;;;;0.90;0.30;;;35.50;63.00;;;;;;5092995;28;20077;-70
2023/09/11 12:18:35;;;;;;;0.60;0.32;;;35.50;63.70;;;;;;5058032;28;20052;-69
2023/09/11 12:21:04;;;;;;;0.70;0.30;;;35.50;61.20;;;;;;5055782;28;20048;-70
2023/09/11 12:23:30;;;;;;;0.20;0.10;;;35.50;61.50;;;;;;5056821;28;20178;-70
2023/09/11 12:25:56;;;;;;;1.40;0.20;;;35.50;58.10;;;;;;5056905;28;20120;-70
2023/09/11 12:28:23;;;;;;;0.75;0.20;;;35.60;61.60;;;;;;5064328;28;20115;-70
2023/09/11 12:30:50;;;;;;;0.70;0.30;;;35.80;61.10;;;;;;5056961;28;20573;-71
2023/09/11 12:33:26;;;;;;;0.20;0.20;;;36.00;58.80;;;;;;5058850;28;20048;-70
2023/09/11 12:35:53;;;;;;;1.17;0.25;;;35.90;59.60;;;;;;5054905;28;20671;-71
2023/09/11 12:38:19;;;;;;;0.65;0.25;;;35.80;59.50;;;;;;5060648;28;20055;-69
2023/09/11 12:40:46;;;;;;;0.65;0.20;;;35.70;58.40;;;;;;5056171;28;20036;-70
2023/09/11 12:43:12;;;;;;;0.82;0.20;;;35.80;60.00;;;;;;5057310;28;20095;-70
2023/09/11 12:45:38;;;;;;;1.25;0.40;;;36.00;58.40;;;;;;5062607;28;20052;-69
2023/09/11 12:48:05;;;;;;;0.98;0.40;;;35.70;58.20;;;;;;5058588;28;20073;-69
2023/09/11 12:50:31;;;;;;;0.80;0.28;;;35.60;59.70;;;;;;5057358;28;20044;-70